sensor_id;sensor_type;location;lat;lon;timestamp;temperature;humidity
29687;DHT22;16599;47.078;15.536;2024-01-10T00:00:26;-2.10;82.50
29687;DHT22;16599;47.078;15.536;2024-01-10T00:02:53;-2.10;83.20
29687;DHT22;16599;47.078;15.536;2024-01-10T00:05:20;-2.00;83.50
29687;DHT22;16599;47.078;15.536;2024-01-10T00:07:47;-2.10;83.90
29687;DHT22;16599;47.078;15.536;2024-01-10T00:10:13;-2.10;82.40
29687;DHT22;16599;47.078;15.536;2024-01-10T00:12:40;-2.10;82.30
29687;DHT22;16599;47.078;15.536;2024-01-10T00:15:10;-2.10;83.70
29687;DHT22;16599;47.078;15.536;2024-01-10T00:17:37;-2.00;84.70
29687;DHT22;16599;47.078;15.536;2024-01-10T00:20:04;-2.00;83.30
29687;DHT22;16599;47.078;15.536;2024-01-10T00:22:31;-2.00;83.40
29687;DHT22;16599;47.078;15.536;2024-01-10T00:24:58;-2.00;84.10
29687;DHT22;16599;47.078;15.536;2024-01-10T00:27:25;-2.00;83.60
29687;DHT22;16599;47.078;15.536;2024-01-10T00:29:51;-2.10;84.00
29687;DHT22;16599;47.078;15.536;2024-01-10T00:32:18;-2.20;83.40
29687;DHT22;16599;47.078;15.536;2024-01-10T00:34:45;-2.30;85.40
29687;DHT22;16599;47.078;15.536;2024-01-10T00:37:12;-2.40;85.80
29687;DHT22;16599;47.078;15.536;2024-01-10T00:39:39;-2.50;84.80
29687;DHT22;16599;47.078;15.536;2024-01-10T00:42:06;-2.40;85.70
29687;DHT22;16599;47.078;15.536;2024-01-10T00:44:33;-2.30;86.20
29687;DHT22;16599;47.078;15.536;2024-01-10T00:46:59;-2.30;87.20
29687;DHT22;16599;47.078;15.536;2024-01-10T00:49:26;-2.20;89.60
29687;DHT22;16599;47.078;15.536;2024-01-10T00:51:53;-2.30;90.20
29687;DHT22;16599;47.078;15.536;2024-01-10T00:54:20;-2.30;90.20
29687;DHT22;16599;47.078;15.536;2024-01-10T00:56:47;-2.30;89.70
29687;DHT22;16599;47.078;15.536;2024-01-10T00:59:14;-2.20;90.50
29687;DHT22;16599;47.078;15.536;2024-01-10T01:01:41;-2.20;90.20
29687;DHT22;16599;47.078;15.536;2024-01-10T01:04:07;-2.30;89.50
29687;DHT22;16599;47.078;15.536;2024-01-10T01:06:34;-2.20;90.20
29687;DHT22;16599;47.078;15.536;2024-01-10T01:09:01;-2.10;90.50
29687;DHT22;16599;47.078;15.536;2024-01-10T01:11:28;-2.20;90.00
29687;DHT22;16599;47.078;15.536;2024-01-10T01:13:55;-2.20;90.00
29687;DHT22;16599;47.078;15.536;2024-01-10T01:16:22;-2.10;89.50
29687;DHT22;16599;47.078;15.536;2024-01-10T01:18:49;-2.10;90.10
29687;DHT22;16599;47.078;15.536;2024-01-10T01:21:16;-2.10;91.00
29687;DHT22;16599;47.078;15.536;2024-01-10T01:23:42;-2.10;90.70
29687;DHT22;16599;47.078;15.536;2024-01-10T01:26:09;-2.20;91.20
29687;DHT22;16599;47.078;15.536;2024-01-10T01:28:36;-2.30;91.90
29687;DHT22;16599;47.078;15.536;2024-01-10T01:31:03;-2.40;91.80
29687;DHT22;16599;47.078;15.536;2024-01-10T01:33:30;-2.40;91.90
29687;DHT22;16599;47.078;15.536;2024-01-10T01:35:57;-2.30;92.00
29687;DHT22;16599;47.078;15.536;2024-01-10T01:38:25;-2.20;92.20
29687;DHT22;16599;47.078;15.536;2024-01-10T01:40:52;-2.10;91.50
29687;DHT22;16599;47.078;15.536;2024-01-10T01:43:19;-2.20;91.70
29687;DHT22;16599;47.078;15.536;2024-01-10T01:45:49;-2.20;92.00
29687;DHT22;16599;47.078;15.536;2024-01-10T01:48:16;-2.20;92.30
29687;DHT22;16599;47.078;15.536;2024-01-10T01:50:44;-2.20;92.70
29687;DHT22;16599;47.078;15.536;2024-01-10T01:53:12;-2.20;92.60
29687;DHT22;16599;47.078;15.536;2024-01-10T01:55:40;-2.20;92.70
29687;DHT22;16599;47.078;15.536;2024-01-10T01:58:07;-2.20;92.50
29687;DHT22;16599;47.078;15.536;2024-01-10T02:00:34;-2.20;92.30
29687;DHT22;16599;47.078;15.536;2024-01-10T02:03:02;-2.10;92.50
29687;DHT22;16599;47.078;15.536;2024-01-10T02:05:29;-2.10;92.50
29687;DHT22;16599;47.078;15.536;2024-01-10T02:07:56;-2.20;92.30
29687;DHT22;16599;47.078;15.536;2024-01-10T02:10:23;-2.30;91.40
29687;DHT22;16599;47.078;15.536;2024-01-10T02:12:52;-2.40;92.30
29687;DHT22;16599;47.078;15.536;2024-01-10T02:15:19;-2.40;93.80
29687;DHT22;16599;47.078;15.536;2024-01-10T02:17:45;-2.40;94.50
29687;DHT22;16599;47.078;15.536;2024-01-10T02:20:13;-2.50;95.20
29687;DHT22;16599;47.078;15.536;2024-01-10T02:22:41;-2.60;95.00
29687;DHT22;16599;47.078;15.536;2024-01-10T02:25:08;-2.90;95.30
29687;DHT22;16599;47.078;15.536;2024-01-10T02:27:38;-3.10;95.10
29687;DHT22;16599;47.078;15.536;2024-01-10T02:30:05;-3.20;95.00
29687;DHT22;16599;47.078;15.536;2024-01-10T02:32:32;-3.20;95.00
29687;DHT22;16599;47.078;15.536;2024-01-10T02:34:59;-3.20;96.40
29687;DHT22;16599;47.078;15.536;2024-01-10T02:37:26;-3.30;97.60
29687;DHT22;16599;47.078;15.536;2024-01-10T02:39:54;-3.30;97.40
29687;DHT22;16599;47.078;15.536;2024-01-10T02:42:20;-3.20;97.10
29687;DHT22;16599;47.078;15.536;2024-01-10T02:44:47;-3.40;97.80
29687;DHT22;16599;47.078;15.536;2024-01-10T02:47:14;-3.80;98.60
29687;DHT22;16599;47.078;15.536;2024-01-10T02:49:41;-3.90;98.70
29687;DHT22;16599;47.078;15.536;2024-01-10T02:52:08;-3.80;98.40
29687;DHT22;16599;47.078;15.536;2024-01-10T02:54:34;-3.90;97.80
29687;DHT22;16599;47.078;15.536;2024-01-10T02:57:01;-4.20;98.80
29687;DHT22;16599;47.078;15.536;2024-01-10T02:59:28;-4.40;99.20
29687;DHT22;16599;47.078;15.536;2024-01-10T03:01:55;-4.20;99.00
29687;DHT22;16599;47.078;15.536;2024-01-10T03:04:21;-4.10;98.20
29687;DHT22;16599;47.078;15.536;2024-01-10T03:06:48;-4.30;98.40
29687;DHT22;16599;47.078;15.536;2024-01-10T03:09:15;-4.70;99.30
29687;DHT22;16599;47.078;15.536;2024-01-10T03:11:42;-4.80;99.90
29687;DHT22;16599;47.078;15.536;2024-01-10T03:14:09;-4.80;99.90
29687;DHT22;16599;47.078;15.536;2024-01-10T03:16:36;-4.60;99.90
29687;DHT22;16599;47.078;15.536;2024-01-10T03:19:03;-4.70;99.90
29687;DHT22;16599;47.078;15.536;2024-01-10T03:21:30;-4.90;99.90
29687;DHT22;16599;47.078;15.536;2024-01-10T03:23:57;-4.60;99.90
29687;DHT22;16599;47.078;15.536;2024-01-10T03:26:24;-4.50;99.90
29687;DHT22;16599;47.078;15.536;2024-01-10T03:28:51;-4.60;99.30
29687;DHT22;16599;47.078;15.536;2024-01-10T03:31:18;-4.80;99.50
29687;DHT22;16599;47.078;15.536;2024-01-10T03:33:45;-4.70;99.60
29687;DHT22;16599;47.078;15.536;2024-01-10T03:36:12;-4.90;99.60
29687;DHT22;16599;47.078;15.536;2024-01-10T03:38:40;-5.20;99.90
29687;DHT22;16599;47.078;15.536;2024-01-10T03:41:07;-5.10;99.90
29687;DHT22;16599;47.078;15.536;2024-01-10T03:43:34;-4.80;99.90
29687;DHT22;16599;47.078;15.536;2024-01-10T03:46:01;-4.60;99.90
29687;DHT22;16599;47.078;15.536;2024-01-10T03:48:27;-4.70;99.40
29687;DHT22;16599;47.078;15.536;2024-01-10T03:50:54;-5.00;99.30
29687;DHT22;16599;47.078;15.536;2024-01-10T03:53:21;-5.20;99.90
29687;DHT22;16599;47.078;15.536;2024-01-10T03:55:48;-5.40;99.90
29687;DHT22;16599;47.078;15.536;2024-01-10T03:58:15;-5.20;99.90
29687;DHT22;16599;47.078;15.536;2024-01-10T04:00:41;-5.10;99.90
29687;DHT22;16599;47.078;15.536;2024-01-10T04:03:08;-5.10;99.90
29687;DHT22;16599;47.078;15.536;2024-01-10T04:05:35;-5.10;99.90
29687;DHT22;16599;47.078;15.536;2024-01-10T04:08:02;-5.20;99.90
29687;DHT22;16599;47.078;15.536;2024-01-10T04:10:30;-5.40;99.90
29687;DHT22;16599;47.078;15.536;2024-01-10T04:12:57;-5.50;99.90
29687;DHT22;16599;47.078;15.536;2024-01-10T04:15:24;-5.40;99.90
29687;DHT22;16599;47.078;15.536;2024-01-10T04:17:50;-5.40;99.90
29687;DHT22;16599;47.078;15.536;2024-01-10T04:20:17;-5.30;99.90
29687;DHT22;16599;47.078;15.536;2024-01-10T04:22:44;-5.30;99.90
29687;DHT22;16599;47.078;15.536;2024-01-10T04:25:11;-5.30;99.90
29687;DHT22;16599;47.078;15.536;2024-01-10T04:27:38;-5.50;99.90
29687;DHT22;16599;47.078;15.536;2024-01-10T04:30:05;-5.70;99.90
29687;DHT22;16599;47.078;15.536;2024-01-10T04:32:32;-5.60;99.90
29687;DHT22;16599;47.078;15.536;2024-01-10T04:34:59;-5.40;99.90
29687;DHT22;16599;47.078;15.536;2024-01-10T04:37:26;-5.30;99.90
29687;DHT22;16599;47.078;15.536;2024-01-10T04:39:53;-5.30;99.90
29687;DHT22;16599;47.078;15.536;2024-01-10T04:42:19;-5.40;99.90
29687;DHT22;16599;47.078;15.536;2024-01-10T04:44:46;-5.50;99.90
29687;DHT22;16599;47.078;15.536;2024-01-10T04:47:13;-5.70;99.90
29687;DHT22;16599;47.078;15.536;2024-01-10T04:49:40;-5.70;99.90
29687;DHT22;16599;47.078;15.536;2024-01-10T04:52:07;-5.60;99.90
29687;DHT22;16599;47.078;15.536;2024-01-10T04:54:33;-5.70;99.90
29687;DHT22;16599;47.078;15.536;2024-01-10T04:57:00;-5.60;99.90
29687;DHT22;16599;47.078;15.536;2024-01-10T04:59:27;-5.70;99.90
29687;DHT22;16599;47.078;15.536;2024-01-10T05:01:54;-5.50;99.90
29687;DHT22;16599;47.078;15.536;2024-01-10T05:04:21;-5.30;99.90
29687;DHT22;16599;47.078;15.536;2024-01-10T05:06:47;-5.10;99.90
29687;DHT22;16599;47.078;15.536;2024-01-10T05:09:14;-5.40;99.90
29687;DHT22;16599;47.078;15.536;2024-01-10T05:11:41;-5.50;99.90
29687;DHT22;16599;47.078;15.536;2024-01-10T05:14:10;-5.60;99.90
29687;DHT22;16599;47.078;15.536;2024-01-10T05:16:37;-5.50;99.90
29687;DHT22;16599;47.078;15.536;2024-01-10T05:19:04;-5.50;99.90
29687;DHT22;16599;47.078;15.536;2024-01-10T05:21:31;-5.70;99.90
29687;DHT22;16599;47.078;15.536;2024-01-10T05:23:58;-6.00;99.90
29687;DHT22;16599;47.078;15.536;2024-01-10T05:26:25;-5.90;99.90
29687;DHT22;16599;47.078;15.536;2024-01-10T05:28:52;-6.10;99.90
29687;DHT22;16599;47.078;15.536;2024-01-10T05:31:19;-6.10;99.90
29687;DHT22;16599;47.078;15.536;2024-01-10T05:33:46;-6.00;99.90
29687;DHT22;16599;47.078;15.536;2024-01-10T05:36:12;-6.20;99.90
29687;DHT22;16599;47.078;15.536;2024-01-10T05:38:39;-6.00;99.90
29687;DHT22;16599;47.078;15.536;2024-01-10T05:41:09;-6.00;99.90
29687;DHT22;16599;47.078;15.536;2024-01-10T05:43:36;-6.10;99.90
29687;DHT22;16599;47.078;15.536;2024-01-10T05:46:03;-6.00;99.90
29687;DHT22;16599;47.078;15.536;2024-01-10T05:48:31;-6.00;99.90
29687;DHT22;16599;47.078;15.536;2024-01-10T05:50:59;-5.90;99.90
29687;DHT22;16599;47.078;15.536;2024-01-10T05:53:26;-6.30;99.90
29687;DHT22;16599;47.078;15.536;2024-01-10T05:55:52;-6.20;99.90
29687;DHT22;16599;47.078;15.536;2024-01-10T05:58:19;-6.00;99.90
29687;DHT22;16599;47.078;15.536;2024-01-10T06:00:47;-6.00;99.90
29687;DHT22;16599;47.078;15.536;2024-01-10T06:03:14;-6.10;99.90
29687;DHT22;16599;47.078;15.536;2024-01-10T06:05:41;-6.20;99.90
29687;DHT22;16599;47.078;15.536;2024-01-10T06:08:08;-6.00;99.90
29687;DHT22;16599;47.078;15.536;2024-01-10T06:10:35;-6.30;99.90
29687;DHT22;16599;47.078;15.536;2024-01-10T06:13:03;-6.30;99.90
29687;DHT22;16599;47.078;15.536;2024-01-10T06:15:30;-6.40;99.90
29687;DHT22;16599;47.078;15.536;2024-01-10T06:17:57;-6.20;99.90
29687;DHT22;16599;47.078;15.536;2024-01-10T06:20:25;-6.20;99.90
29687;DHT22;16599;47.078;15.536;2024-01-10T06:22:52;-6.40;99.90
29687;DHT22;16599;47.078;15.536;2024-01-10T06:25:19;-6.30;99.90
29687;DHT22;16599;47.078;15.536;2024-01-10T06:27:46;-6.20;99.90
29687;DHT22;16599;47.078;15.536;2024-01-10T06:30:13;-6.40;99.90
29687;DHT22;16599;47.078;15.536;2024-01-10T06:32:40;-6.50;99.90
29687;DHT22;16599;47.078;15.536;2024-01-10T06:35:07;-6.20;99.90
29687;DHT22;16599;47.078;15.536;2024-01-10T06:37:37;-6.50;99.90
29687;DHT22;16599;47.078;15.536;2024-01-10T06:40:04;-6.50;99.90
29687;DHT22;16599;47.078;15.536;2024-01-10T06:42:32;-6.30;99.90
29687;DHT22;16599;47.078;15.536;2024-01-10T06:44:59;-6.50;99.90
29687;DHT22;16599;47.078;15.536;2024-01-10T06:47:26;-6.40;99.90
29687;DHT22;16599;47.078;15.536;2024-01-10T06:49:54;-6.30;99.90
29687;DHT22;16599;47.078;15.536;2024-01-10T06:52:20;-6.30;99.90
29687;DHT22;16599;47.078;15.536;2024-01-10T06:54:47;-6.50;99.90
29687;DHT22;16599;47.078;15.536;2024-01-10T06:57:14;-6.30;99.90
29687;DHT22;16599;47.078;15.536;2024-01-10T06:59:41;-6.20;99.90
29687;DHT22;16599;47.078;15.536;2024-01-10T07:02:07;-6.20;99.90
29687;DHT22;16599;47.078;15.536;2024-01-10T07:04:36;-6.10;99.90
29687;DHT22;16599;47.078;15.536;2024-01-10T07:07:03;-6.00;99.90
29687;DHT22;16599;47.078;15.536;2024-01-10T07:09:30;-6.30;99.90
29687;DHT22;16599;47.078;15.536;2024-01-10T07:11:57;-6.10;99.90
29687;DHT22;16599;47.078;15.536;2024-01-10T07:14:24;-6.10;99.90
29687;DHT22;16599;47.078;15.536;2024-01-10T07:16:50;-6.20;99.90
29687;DHT22;16599;47.078;15.536;2024-01-10T07:19:18;-6.30;99.90
29687;DHT22;16599;47.078;15.536;2024-01-10T07:21:45;-6.30;99.90
29687;DHT22;16599;47.078;15.536;2024-01-10T07:24:12;-6.20;99.90
29687;DHT22;16599;47.078;15.536;2024-01-10T07:26:39;-6.00;99.90
29687;DHT22;16599;47.078;15.536;2024-01-10T07:29:06;-5.90;99.90
29687;DHT22;16599;47.078;15.536;2024-01-10T07:31:35;-5.80;99.90
29687;DHT22;16599;47.078;15.536;2024-01-10T07:34:02;-5.90;99.90
29687;DHT22;16599;47.078;15.536;2024-01-10T07:36:32;-5.80;99.90
29687;DHT22;16599;47.078;15.536;2024-01-10T07:39:02;-5.80;99.90
29687;DHT22;16599;47.078;15.536;2024-01-10T07:41:30;-5.60;99.90
29687;DHT22;16599;47.078;15.536;2024-01-10T07:43:57;-5.60;99.90
29687;DHT22;16599;47.078;15.536;2024-01-10T07:46:24;-5.70;99.90
29687;DHT22;16599;47.078;15.536;2024-01-10T07:48:51;-5.70;99.90
29687;DHT22;16599;47.078;15.536;2024-01-10T07:51:17;-5.70;99.90
29687;DHT22;16599;47.078;15.536;2024-01-10T07:53:44;-5.70;99.90
29687;DHT22;16599;47.078;15.536;2024-01-10T07:56:11;-5.60;99.90
29687;DHT22;16599;47.078;15.536;2024-01-10T07:58:39;-5.60;99.90
29687;DHT22;16599;47.078;15.536;2024-01-10T08:01:06;-5.50;99.90
29687;DHT22;16599;47.078;15.536;2024-01-10T08:03:33;-5.40;99.90
29687;DHT22;16599;47.078;15.536;2024-01-10T08:06:00;-5.40;99.90
29687;DHT22;16599;47.078;15.536;2024-01-10T08:08:27;-5.70;99.90
29687;DHT22;16599;47.078;15.536;2024-01-10T08:10:55;-5.50;99.90
29687;DHT22;16599;47.078;15.536;2024-01-10T08:13:22;-5.50;99.90
29687;DHT22;16599;47.078;15.536;2024-01-10T08:15:49;-5.50;99.90
29687;DHT22;16599;47.078;15.536;2024-01-10T08:18:17;-5.50;99.90
29687;DHT22;16599;47.078;15.536;2024-01-10T08:20:44;-5.50;99.90
29687;DHT22;16599;47.078;15.536;2024-01-10T08:23:11;-5.30;99.90
29687;DHT22;16599;47.078;15.536;2024-01-10T08:25:38;-5.30;99.90
29687;DHT22;16599;47.078;15.536;2024-01-10T08:28:07;-5.10;99.90
29687;DHT22;16599;47.078;15.536;2024-01-10T08:30:34;-5.00;99.90
29687;DHT22;16599;47.078;15.536;2024-01-10T08:33:01;-5.10;99.90
29687;DHT22;16599;47.078;15.536;2024-01-10T08:35:31;-4.80;99.90
29687;DHT22;16599;47.078;15.536;2024-01-10T08:37:58;-4.60;99.90
29687;DHT22;16599;47.078;15.536;2024-01-10T08:40:25;-4.50;99.90
29687;DHT22;16599;47.078;15.536;2024-01-10T08:42:52;-4.20;99.90
29687;DHT22;16599;47.078;15.536;2024-01-10T08:45:19;-4.20;99.90
29687;DHT22;16599;47.078;15.536;2024-01-10T08:47:46;-4.10;99.90
29687;DHT22;16599;47.078;15.536;2024-01-10T08:50:13;-3.90;99.90
29687;DHT22;16599;47.078;15.536;2024-01-10T08:52:40;-3.70;99.90
29687;DHT22;16599;47.078;15.536;2024-01-10T08:55:07;-3.50;99.90
29687;DHT22;16599;47.078;15.536;2024-01-10T08:57:39;-3.40;99.90
29687;DHT22;16599;47.078;15.536;2024-01-10T09:00:06;-3.20;99.90
29687;DHT22;16599;47.078;15.536;2024-01-10T09:02:34;-3.10;99.90
29687;DHT22;16599;47.078;15.536;2024-01-10T09:05:03;-3.10;99.90
29687;DHT22;16599;47.078;15.536;2024-01-10T09:07:30;-3.00;99.90
29687;DHT22;16599;47.078;15.536;2024-01-10T09:09:57;-2.90;99.90
29687;DHT22;16599;47.078;15.536;2024-01-10T09:12:24;-2.80;99.90
29687;DHT22;16599;47.078;15.536;2024-01-10T09:14:50;-2.60;99.20
29687;DHT22;16599;47.078;15.536;2024-01-10T09:17:17;-2.40;99.20
29687;DHT22;16599;47.078;15.536;2024-01-10T09:19:44;-2.30;97.80
29687;DHT22;16599;47.078;15.536;2024-01-10T09:22:12;-2.30;97.70
29687;DHT22;16599;47.078;15.536;2024-01-10T09:24:40;-2.10;97.10
29687;DHT22;16599;47.078;15.536;2024-01-10T09:27:09;-2.10;96.20
29687;DHT22;16599;47.078;15.536;2024-01-10T09:29:36;-2.10;96.30
29687;DHT22;16599;47.078;15.536;2024-01-10T09:32:03;-2.00;95.60
29687;DHT22;16599;47.078;15.536;2024-01-10T09:34:30;-1.70;96.30
29687;DHT22;16599;47.078;15.536;2024-01-10T09:36:58;-1.70;95.50
29687;DHT22;16599;47.078;15.536;2024-01-10T09:39:25;-1.50;95.10
29687;DHT22;16599;47.078;15.536;2024-01-10T09:41:52;-1.50;94.90
29687;DHT22;16599;47.078;15.536;2024-01-10T09:44:19;-1.40;93.90
29687;DHT22;16599;47.078;15.536;2024-01-10T09:46:50;-1.40;94.00
29687;DHT22;16599;47.078;15.536;2024-01-10T09:49:17;-1.30;93.30
29687;DHT22;16599;47.078;15.536;2024-01-10T09:51:45;-1.20;93.40
29687;DHT22;16599;47.078;15.536;2024-01-10T09:54:14;-1.10;93.60
29687;DHT22;16599;47.078;15.536;2024-01-10T09:56:42;-1.10;92.80
29687;DHT22;16599;47.078;15.536;2024-01-10T09:59:09;-1.20;91.90
29687;DHT22;16599;47.078;15.536;2024-01-10T10:01:37;-1.30;91.40
29687;DHT22;16599;47.078;15.536;2024-01-10T10:04:06;-1.20;91.50
29687;DHT22;16599;47.078;15.536;2024-01-10T10:06:34;-1.00;93.10
29687;DHT22;16599;47.078;15.536;2024-01-10T10:09:01;-0.90;92.50
29687;DHT22;16599;47.078;15.536;2024-01-10T10:11:28;-0.90;91.50
29687;DHT22;16599;47.078;15.536;2024-01-10T10:13:55;-0.90;91.40
29687;DHT22;16599;47.078;15.536;2024-01-10T10:16:25;-0.80;91.60
29687;DHT22;16599;47.078;15.536;2024-01-10T10:18:52;-0.50;92.10
29687;DHT22;16599;47.078;15.536;2024-01-10T10:21:24;-0.30;91.00
29687;DHT22;16599;47.078;15.536;2024-01-10T10:23:59;-0.20;91.90
29687;DHT22;16599;47.078;15.536;2024-01-10T10:26:26;-0.30;91.60
29687;DHT22;16599;47.078;15.536;2024-01-10T10:28:53;-0.30;90.80
29687;DHT22;16599;47.078;15.536;2024-01-10T10:34:12;0.00;89.90
29687;DHT22;16599;47.078;15.536;2024-01-10T10:36:39;-0.10;86.20
29687;DHT22;16599;47.078;15.536;2024-01-10T10:39:08;-0.10;85.90
29687;DHT22;16599;47.078;15.536;2024-01-10T10:41:40;-0.20;85.60
29687;DHT22;16599;47.078;15.536;2024-01-10T10:44:07;-0.40;85.90
29687;DHT22;16599;47.078;15.536;2024-01-10T10:46:36;0.00;85.50
29687;DHT22;16599;47.078;15.536;2024-01-10T10:49:05;0.10;84.90
29687;DHT22;16599;47.078;15.536;2024-01-10T10:51:33;0.30;84.20
29687;DHT22;16599;47.078;15.536;2024-01-10T10:54:00;0.20;83.90
29687;DHT22;16599;47.078;15.536;2024-01-10T10:56:29;0.30;84.20
29687;DHT22;16599;47.078;15.536;2024-01-10T10:58:56;0.20;83.70
29687;DHT22;16599;47.078;15.536;2024-01-10T11:01:23;0.40;84.40
29687;DHT22;16599;47.078;15.536;2024-01-10T11:03:50;0.20;83.20
29687;DHT22;16599;47.078;15.536;2024-01-10T11:06:17;0.10;87.80
29687;DHT22;16599;47.078;15.536;2024-01-10T11:12:01;0.70;84.00
29687;DHT22;16599;47.078;15.536;2024-01-10T11:25:06;0.60;85.80
29687;DHT22;16599;47.078;15.536;2024-01-10T11:27:33;0.90;84.80
29687;DHT22;16599;47.078;15.536;2024-01-10T11:30:00;0.90;84.40
29687;DHT22;16599;47.078;15.536;2024-01-10T11:32:27;0.90;83.30
29687;DHT22;16599;47.078;15.536;2024-01-10T11:35:00;0.70;84.60
29687;DHT22;16599;47.078;15.536;2024-01-10T11:37:42;0.60;86.70
29687;DHT22;16599;47.078;15.536;2024-01-10T11:40:09;0.90;86.00
29687;DHT22;16599;47.078;15.536;2024-01-10T11:42:43;1.10;83.90
29687;DHT22;16599;47.078;15.536;2024-01-10T11:45:10;1.10;83.30
29687;DHT22;16599;47.078;15.536;2024-01-10T11:47:42;1.20;83.20
29687;DHT22;16599;47.078;15.536;2024-01-10T11:50:09;1.30;81.90
29687;DHT22;16599;47.078;15.536;2024-01-10T11:52:45;1.20;82.30
29687;DHT22;16599;47.078;15.536;2024-01-10T11:55:28;1.10;82.90
29687;DHT22;16599;47.078;15.536;2024-01-10T11:58:08;1.10;83.70
29687;DHT22;16599;47.078;15.536;2024-01-10T12:00:36;1.20;81.20
29687;DHT22;16599;47.078;15.536;2024-01-10T12:03:03;1.20;79.80
29687;DHT22;16599;47.078;15.536;2024-01-10T12:05:30;0.80;80.40
29687;DHT22;16599;47.078;15.536;2024-01-10T12:07:57;1.10;81.60
29687;DHT22;16599;47.078;15.536;2024-01-10T12:10:26;1.10;82.10
29687;DHT22;16599;47.078;15.536;2024-01-10T12:12:53;1.10;80.60
29687;DHT22;16599;47.078;15.536;2024-01-10T12:15:21;0.80;80.60
29687;DHT22;16599;47.078;15.536;2024-01-10T12:17:48;0.70;81.70
29687;DHT22;16599;47.078;15.536;2024-01-10T12:20:15;1.00;83.00
29687;DHT22;16599;47.078;15.536;2024-01-10T12:22:42;1.10;81.10
29687;DHT22;16599;47.078;15.536;2024-01-10T12:25:10;0.90;82.70
29687;DHT22;16599;47.078;15.536;2024-01-10T12:27:37;1.40;82.20
29687;DHT22;16599;47.078;15.536;2024-01-10T12:30:04;1.50;81.70
29687;DHT22;16599;47.078;15.536;2024-01-10T12:32:31;1.50;81.70
29687;DHT22;16599;47.078;15.536;2024-01-10T12:35:02;1.70;81.50
29687;DHT22;16599;47.078;15.536;2024-01-10T12:37:29;1.70;80.80
29687;DHT22;16599;47.078;15.536;2024-01-10T12:39:56;1.70;82.80
29687;DHT22;16599;47.078;15.536;2024-01-10T12:42:23;1.50;82.20
29687;DHT22;16599;47.078;15.536;2024-01-10T12:44:50;1.80;81.30
29687;DHT22;16599;47.078;15.536;2024-01-10T12:47:21;1.80;80.20
29687;DHT22;16599;47.078;15.536;2024-01-10T12:49:48;1.80;80.00
29687;DHT22;16599;47.078;15.536;2024-01-10T12:52:15;1.50;79.40
29687;DHT22;16599;47.078;15.536;2024-01-10T12:54:46;1.40;82.30
29687;DHT22;16599;47.078;15.536;2024-01-10T12:57:13;1.20;81.60
29687;DHT22;16599;47.078;15.536;2024-01-10T12:59:40;1.60;82.80
29687;DHT22;16599;47.078;15.536;2024-01-10T13:02:07;1.90;81.90
29687;DHT22;16599;47.078;15.536;2024-01-10T13:04:34;2.00;80.70
29687;DHT22;16599;47.078;15.536;2024-01-10T13:07:00;2.20;78.90
29687;DHT22;16599;47.078;15.536;2024-01-10T13:09:28;2.40;78.60
29687;DHT22;16599;47.078;15.536;2024-01-10T13:11:55;2.40;78.50
29687;DHT22;16599;47.078;15.536;2024-01-10T13:14:22;2.30;79.20
29687;DHT22;16599;47.078;15.536;2024-01-10T13:16:48;2.30;78.90
29687;DHT22;16599;47.078;15.536;2024-01-10T13:22:53;2.20;78.90
29687;DHT22;16599;47.078;15.536;2024-01-10T13:25:20;2.00;79.60
29687;DHT22;16599;47.078;15.536;2024-01-10T13:27:50;2.00;79.10
29687;DHT22;16599;47.078;15.536;2024-01-10T13:33:09;1.80;78.80
29687;DHT22;16599;47.078;15.536;2024-01-10T13:35:36;1.80;79.90
29687;DHT22;16599;47.078;15.536;2024-01-10T13:38:04;2.10;79.00
29687;DHT22;16599;47.078;15.536;2024-01-10T13:40:31;2.10;77.30
29687;DHT22;16599;47.078;15.536;2024-01-10T13:43:00;2.00;77.40
29687;DHT22;16599;47.078;15.536;2024-01-10T13:45:30;2.00;78.10
29687;DHT22;16599;47.078;15.536;2024-01-10T13:47:57;1.80;78.10
29687;DHT22;16599;47.078;15.536;2024-01-10T13:50:23;1.70;79.60
29687;DHT22;16599;47.078;15.536;2024-01-10T13:52:52;1.70;82.90
29687;DHT22;16599;47.078;15.536;2024-01-10T13:55:20;1.80;80.20
29687;DHT22;16599;47.078;15.536;2024-01-10T14:00:40;1.10;80.80
29687;DHT22;16599;47.078;15.536;2024-01-10T14:06:19;1.20;80.30
29687;DHT22;16599;47.078;15.536;2024-01-10T14:12:18;0.90;81.30
29687;DHT22;16599;47.078;15.536;2024-01-10T14:14:45;0.70;81.20
29687;DHT22;16599;47.078;15.536;2024-01-10T14:17:12;0.80;81.50
29687;DHT22;16599;47.078;15.536;2024-01-10T14:19:38;0.70;81.90
29687;DHT22;16599;47.078;15.536;2024-01-10T14:22:06;0.70;82.70
29687;DHT22;16599;47.078;15.536;2024-01-10T14:24:43;1.00;81.60
29687;DHT22;16599;47.078;15.536;2024-01-10T14:27:10;1.20;81.10
29687;DHT22;16599;47.078;15.536;2024-01-10T14:29:37;1.10;80.70
29687;DHT22;16599;47.078;15.536;2024-01-10T14:32:04;1.10;81.20
29687;DHT22;16599;47.078;15.536;2024-01-10T14:34:43;1.00;81.80
29687;DHT22;16599;47.078;15.536;2024-01-10T14:37:12;0.90;84.00
29687;DHT22;16599;47.078;15.536;2024-01-10T14:39:38;0.60;84.00
29687;DHT22;16599;47.078;15.536;2024-01-10T14:42:19;0.60;83.00
29687;DHT22;16599;47.078;15.536;2024-01-10T14:44:50;0.50;83.80
29687;DHT22;16599;47.078;15.536;2024-01-10T14:47:16;0.60;84.80
29687;DHT22;16599;47.078;15.536;2024-01-10T14:49:43;0.60;84.50
29687;DHT22;16599;47.078;15.536;2024-01-10T14:52:10;0.60;85.90
29687;DHT22;16599;47.078;15.536;2024-01-10T14:54:37;0.50;85.00
29687;DHT22;16599;47.078;15.536;2024-01-10T14:57:04;0.30;86.20
29687;DHT22;16599;47.078;15.536;2024-01-10T14:59:31;0.20;87.30
29687;DHT22;16599;47.078;15.536;2024-01-10T15:02:10;0.20;88.60
29687;DHT22;16599;47.078;15.536;2024-01-10T15:04:40;0.00;90.30
29687;DHT22;16599;47.078;15.536;2024-01-10T15:07:07;-0.20;90.00
29687;DHT22;16599;47.078;15.536;2024-01-10T15:09:34;-0.30;90.80
29687;DHT22;16599;47.078;15.536;2024-01-10T15:12:05;-0.50;91.20
29687;DHT22;16599;47.078;15.536;2024-01-10T15:14:36;-0.60;91.60
29687;DHT22;16599;47.078;15.536;2024-01-10T15:17:05;-0.60;91.60
29687;DHT22;16599;47.078;15.536;2024-01-10T15:19:37;-0.70;91.50
29687;DHT22;16599;47.078;15.536;2024-01-10T15:22:05;-0.70;91.30
29687;DHT22;16599;47.078;15.536;2024-01-10T15:24:32;-0.60;91.40
29687;DHT22;16599;47.078;15.536;2024-01-10T15:26:59;-0.70;91.60
29687;DHT22;16599;47.078;15.536;2024-01-10T15:29:37;-0.60;91.60
29687;DHT22;16599;47.078;15.536;2024-01-10T15:32:05;-0.70;92.50
29687;DHT22;16599;47.078;15.536;2024-01-10T15:34:32;-0.90;92.90
29687;DHT22;16599;47.078;15.536;2024-01-10T15:36:59;-1.00;93.30
29687;DHT22;16599;47.078;15.536;2024-01-10T15:39:26;-1.10;93.60
29687;DHT22;16599;47.078;15.536;2024-01-10T15:41:53;-1.20;93.90
29687;DHT22;16599;47.078;15.536;2024-01-10T15:44:21;-1.40;94.40
29687;DHT22;16599;47.078;15.536;2024-01-10T15:46:48;-1.60;94.70
29687;DHT22;16599;47.078;15.536;2024-01-10T15:49:16;-1.80;95.50
29687;DHT22;16599;47.078;15.536;2024-01-10T15:51:43;-1.90;96.10
29687;DHT22;16599;47.078;15.536;2024-01-10T15:54:09;-2.00;96.60